createdAt,value
2018-07-27T00:02:11.937Z,8.00
2018-07-27T00:04:42.474Z,8.53
2018-07-27T00:07:13.112Z,8.20
2018-07-27T00:09:43.629Z,8.70
2018-07-27T00:12:14.500Z,9.00
2018-07-27T00:14:45.758Z,8.00
2018-07-27T00:17:16.262Z,8.07
2018-07-27T00:19:46.677Z,9.30
2018-07-27T00:22:18.255Z,9.30
2018-07-27T00:24:48.903Z,8.37
2018-07-27T00:27:19.741Z,8.13
2018-07-27T00:29:51.037Z,8.57
2018-07-27T00:32:21.997Z,8.87
2018-07-27T00:34:52.877Z,8.70
2018-07-27T00:37:23.899Z,8.60
2018-07-27T00:39:54.673Z,9.00
2018-07-27T00:42:25.444Z,8.80
2018-07-27T00:44:57.005Z,9.10
2018-07-27T00:47:27.301Z,8.90
2018-07-27T00:49:57.970Z,8.10
2018-07-27T00:52:29.573Z,9.07
2018-07-27T00:55:00.305Z,9.00
2018-07-27T00:57:31.509Z,8.13
2018-07-27T01:00:02.946Z,8.77
2018-07-27T01:02:33.307Z,8.43
2018-07-27T01:05:04.333Z,8.60
2018-07-27T01:07:35.129Z,9.17
2018-07-27T01:10:05.969Z,8.77
2018-07-27T01:12:37.036Z,9.43
2018-07-27T01:15:08.236Z,9.23
2018-07-27T01:17:38.421Z,9.33
2018-07-27T01:20:09.475Z,9.90
2018-07-27T01:22:41.014Z,9.20
2018-07-27T01:25:11.501Z,9.43
2018-07-27T01:27:42.334Z,9.07
2018-07-27T01:30:13.779Z,9.73
2018-07-27T01:32:44.734Z,9.90
2018-07-27T01:35:15.657Z,10.33
2018-07-27T01:37:46.914Z,9.53
2018-07-27T01:40:17.691Z,9.80
2018-07-27T01:42:48.473Z,9.47
2018-07-27T01:45:19.602Z,9.00
2018-07-27T01:47:50.577Z,10.43
2018-07-27T01:50:21.477Z,10.00
2018-07-27T01:52:52.986Z,9.60
2018-07-27T01:55:23.805Z,10.33
2018-07-27T01:57:55.270Z,9.97
2018-07-27T02:00:26.206Z,9.63
2018-07-27T02:02:57.402Z,9.90
2018-07-27T02:05:27.959Z,10.00
2018-07-27T02:07:59.397Z,9.27
2018-07-27T02:10:30.134Z,8.83
2018-07-27T02:13:01.541Z,9.47
2018-07-27T02:15:32.097Z,9.77
2018-07-27T02:18:02.630Z,9.87
2018-07-27T02:20:33.589Z,9.53
2018-07-27T02:23:05.899Z,10.47
2018-07-27T02:25:36.584Z,9.90
2018-07-27T02:28:07.405Z,10.77
2018-07-27T02:30:38.873Z,9.93
2018-07-27T02:33:10.001Z,10.23
2018-07-27T02:35:40.798Z,10.40
2018-07-27T02:38:12.226Z,10.20
2018-07-27T02:40:43.245Z,10.07
2018-07-27T02:43:14.246Z,10.60
2018-07-27T02:45:45.704Z,10.30
2018-07-27T02:48:16.598Z,10.80
2018-07-27T02:50:47.621Z,10.07
2018-07-27T02:53:19.011Z,10.60
2018-07-27T02:55:49.066Z,10.10
2018-07-27T02:58:19.892Z,10.50
2018-07-27T03:00:50.678Z,10.43
2018-07-27T03:03:21.581Z,10.77
2018-07-27T03:05:52.305Z,10.17
2018-07-27T03:08:23.761Z,10.93
2018-07-27T03:10:54.435Z,9.90
2018-07-27T03:13:25.494Z,10.47
2018-07-27T03:15:56.702Z,10.77
2018-07-27T03:18:27.766Z,10.10
2018-07-27T03:20:58.582Z,10.90
2018-07-27T03:23:29.909Z,11.37
2018-07-27T03:26:00.913Z,11.00
2018-07-27T03:28:31.845Z,11.27
2018-07-27T03:31:02.484Z,11.63
2018-07-27T03:33:33.133Z,11.83
2018-07-27T03:36:03.878Z,10.73
2018-07-27T03:38:35.581Z,11.27
2018-07-27T03:41:06.282Z,10.90
2018-07-27T03:43:37.302Z,11.87
2018-07-27T03:46:09.137Z,10.67
2018-07-27T03:48:40.272Z,10.33
2018-07-27T03:51:11.044Z,10.40
2018-07-27T03:53:44.134Z,10.90
2018-07-27T03:56:14.693Z,11.03
2018-07-27T03:58:45.293Z,10.93
2018-07-27T04:01:16.458Z,10.83
2018-07-27T04:03:47.462Z,10.73
2018-07-27T04:06:18.210Z,11.30
2018-07-27T04:08:49.050Z,10.40
2018-07-27T04:55:01.726Z,10.60
2018-07-27T04:57:32.393Z,10.30
2018-07-27T05:00:03.886Z,9.77
2018-07-27T05:02:34.992Z,9.97
2018-07-27T05:05:06.178Z,9.57
2018-07-27T05:07:36.927Z,9.30
2018-07-27T05:10:12.766Z,9.27
2018-07-27T05:12:43.109Z,8.47
2018-07-27T05:15:14.706Z,9.00
2018-07-27T05:17:45.377Z,9.17
2018-07-27T05:20:15.953Z,8.87
2018-07-27T05:22:47.297Z,9.03
2018-07-27T05:25:18.389Z,8.60
2018-07-27T05:27:48.940Z,8.53
2018-07-27T05:30:20.046Z,7.73
2018-07-27T05:32:52.786Z,8.10
2018-07-27T05:35:23.500Z,7.83
2018-07-27T05:38:08.338Z,7.67
2018-07-27T05:40:43.586Z,7.60
2018-07-27T05:43:14.198Z,7.03
2018-07-27T05:45:44.761Z,7.63
2018-07-27T05:48:15.766Z,7.60
2018-07-27T05:50:46.972Z,6.63
2018-07-27T05:53:17.864Z,7.20
2018-07-27T05:55:49.091Z,6.80
2018-07-27T05:58:19.989Z,6.57
2018-07-27T06:00:50.929Z,6.43
2018-07-27T06:03:21.541Z,6.70
2018-07-27T06:05:54.884Z,6.47
2018-07-27T06:08:29.280Z,6.63
2018-07-27T06:11:02.929Z,6.70
2018-07-27T06:13:36.086Z,6.83
2018-07-27T06:16:36.214Z,6.03
2018-07-27T06:19:12.671Z,6.00
2018-07-27T06:21:44.541Z,6.30
2018-07-27T06:24:16.210Z,5.87
2018-07-27T06:26:47.829Z,6.03
2018-07-27T06:29:18.337Z,5.83
2018-07-27T06:31:49.257Z,5.40
2018-07-27T06:34:20.042Z,5.50
2018-07-27T06:37:01.005Z,5.80
2018-07-27T06:39:44.012Z,5.50
2018-07-27T06:42:16.593Z,5.33
2018-07-27T06:44:50.739Z,5.57
2018-07-27T06:47:21.817Z,5.80
2018-07-27T06:49:52.497Z,5.97
2018-07-27T06:52:24.115Z,6.03
2018-07-27T06:54:55.401Z,5.40
2018-07-27T06:57:26.701Z,5.23
2018-07-27T06:59:58.005Z,5.20
2018-07-27T07:02:29.228Z,5.40
2018-07-27T07:05:00.131Z,5.20
2018-07-27T07:07:32.542Z,5.63
2018-07-27T07:10:04.533Z,5.43
2018-07-27T07:12:35.241Z,5.60
2018-07-27T07:15:08.886Z,4.63
2018-07-27T07:17:39.618Z,4.63
2018-07-27T07:20:10.490Z,5.00
2018-07-27T07:22:41.112Z,4.50
2018-07-27T07:25:14.018Z,5.00
2018-07-27T07:28:03.105Z,4.70
2018-07-27T07:30:34.869Z,5.23
2018-07-27T07:33:05.944Z,4.57
2018-07-27T07:35:36.537Z,4.50
2018-07-27T07:38:08.825Z,4.40
2018-07-27T07:40:39.390Z,3.93
2018-07-27T07:43:11.165Z,4.23
2018-07-27T07:45:45.127Z,4.73
2018-07-27T07:48:15.705Z,6.23
2018-07-27T07:50:46.601Z,4.43
2018-07-27T07:53:17.383Z,4.40
2018-07-27T07:55:48.025Z,3.70
2018-07-27T07:58:18.617Z,3.93
2018-07-27T08:00:49.598Z,3.90
2018-07-27T08:03:25.096Z,3.43
2018-07-27T08:05:56.611Z,4.03
2018-07-27T08:08:35.507Z,3.63
2018-07-27T08:11:11.500Z,3.67
2018-07-27T08:14:01.350Z,4.10
2018-07-27T08:16:43.198Z,3.83
2018-07-27T08:19:18.467Z,3.80
2018-07-27T08:21:54.061Z,3.70
2018-07-27T08:24:33.848Z,3.70
2018-07-27T08:27:27.021Z,3.97
2018-07-27T08:29:58.657Z,3.60
2018-07-27T08:32:29.195Z,3.90
2018-07-27T08:35:00.449Z,3.70
2018-07-27T08:37:33.471Z,3.70
2018-07-27T08:40:04.700Z,3.73
2018-07-27T08:42:35.553Z,3.60
2018-07-27T08:45:07.114Z,3.90
2018-07-27T08:47:37.717Z,3.60
2018-07-27T08:50:09.706Z,3.60
2018-07-27T08:52:40.277Z,3.43
2018-07-27T08:55:22.124Z,3.37
2018-07-27T08:57:55.503Z,3.40
2018-07-27T09:04:10.330Z,3.53
2018-07-27T09:06:41.261Z,3.73
2018-07-27T09:09:14.761Z,3.30
2018-07-27T09:11:45.586Z,3.47
2018-07-27T09:14:16.503Z,3.50
2018-07-27T09:16:47.589Z,3.40
2018-07-27T09:19:18.202Z,3.57
2018-07-27T09:21:50.057Z,3.40
2018-07-27T09:24:20.734Z,3.13
2018-07-27T09:26:51.393Z,3.47
2018-07-27T09:29:22.257Z,3.53
2018-07-27T09:31:52.911Z,3.47
2018-07-27T09:34:23.446Z,3.23
2018-07-27T09:36:54.827Z,3.20
2018-07-27T09:39:25.406Z,3.13
2018-07-27T09:41:56.335Z,2.70
2018-07-27T09:44:27.096Z,3.17
2018-07-27T09:46:58.283Z,3.37
2018-07-27T09:49:28.993Z,3.23
2018-07-27T09:51:59.665Z,3.20
2018-07-27T09:54:30.743Z,2.80
2018-07-27T09:57:01.373Z,3.10
2018-07-27T09:59:32.067Z,2.80
2018-07-27T10:02:03.033Z,2.80
2018-07-27T10:04:34.017Z,3.10
2018-07-27T10:07:04.769Z,2.70
2018-07-27T10:09:35.300Z,2.70
2018-07-27T10:12:06.883Z,2.90
2018-07-27T10:14:38.644Z,2.90
2018-07-27T10:17:10.854Z,3.10
2018-07-27T10:19:41.730Z,2.73
2018-07-27T10:22:12.448Z,2.93
2018-07-27T10:24:42.991Z,3.03
2018-07-27T10:27:14.096Z,3.23
2018-07-27T10:29:45.521Z,3.03
2018-07-27T10:32:17.062Z,2.90
2018-07-27T10:34:47.613Z,3.10
2018-07-27T10:37:18.322Z,3.10
2018-07-27T10:39:49.126Z,3.00
2018-07-27T10:42:20.202Z,3.03
2018-07-27T10:44:50.942Z,3.10
2018-07-27T10:47:21.812Z,3.20
2018-07-27T10:49:52.717Z,3.10
2018-07-27T10:52:23.274Z,3.10
2018-07-27T10:54:53.833Z,3.20
2018-07-27T10:57:24.986Z,3.30
2018-07-27T10:59:55.681Z,3.33
2018-07-27T11:02:27.306Z,3.17
2018-07-27T11:04:58.176Z,3.27
2018-07-27T11:07:29.036Z,3.23
2018-07-27T11:09:59.940Z,3.20
2018-07-27T11:12:30.662Z,2.90
2018-07-27T11:15:01.205Z,3.20
2018-07-27T11:17:31.805Z,3.17
2018-07-27T11:20:02.862Z,3.30
2018-07-27T11:22:33.600Z,3.37
2018-07-27T11:25:04.180Z,3.47
2018-07-27T11:27:35.139Z,3.60
2018-07-27T11:30:05.895Z,3.20
2018-07-27T11:32:36.662Z,2.77
2018-07-27T11:35:07.856Z,3.30
2018-07-27T11:37:38.465Z,3.00
2018-07-27T11:40:09.149Z,3.07
2018-07-27T11:42:40.119Z,3.00
2018-07-27T11:45:10.653Z,2.60
2018-07-27T11:47:41.455Z,2.70
2018-07-27T11:50:12.486Z,2.70
2018-07-27T11:52:43.495Z,2.57
2018-07-27T11:55:14.181Z,2.60
2018-07-27T11:57:45.023Z,2.27
2018-07-27T12:00:16.139Z,2.30
2018-07-27T12:02:47.097Z,2.37
2018-07-27T12:05:17.646Z,2.33
2018-07-27T12:07:48.718Z,2.50
2018-07-27T12:10:19.470Z,2.40
2018-07-27T12:12:50.164Z,2.60
2018-07-27T12:15:21.203Z,2.63
2018-07-27T12:17:51.968Z,2.57
2018-07-27T12:20:22.691Z,2.80
2018-07-27T12:22:53.565Z,2.83
2018-07-27T12:25:24.185Z,2.50
2018-07-27T12:27:55.148Z,2.10
2018-07-27T12:30:26.414Z,2.50
2018-07-27T12:32:57.905Z,2.33
2018-07-27T12:35:29.138Z,2.42
2018-07-27T12:38:00.514Z,2.30
2018-07-27T12:40:30.679Z,2.83
2018-07-27T12:43:01.253Z,2.77
2018-07-27T12:45:32.130Z,2.40
2018-07-27T12:48:03.198Z,2.50
2018-07-27T12:50:34.337Z,2.87
2018-07-27T12:53:04.780Z,2.70
2018-07-27T12:55:35.699Z,3.00
2018-07-27T12:58:06.397Z,3.10
2018-07-27T13:00:36.942Z,3.00
2018-07-27T13:03:07.941Z,3.20
2018-07-27T13:05:39.022Z,3.27
2018-07-27T13:08:10.649Z,3.40
2018-07-27T13:10:40.891Z,3.50
2018-07-27T13:13:11.544Z,3.50
2018-07-27T13:15:42.234Z,3.20
2018-07-27T13:18:12.791Z,3.57
2018-07-27T13:20:54.889Z,3.45
2018-07-27T13:23:26.280Z,3.20
2018-07-27T13:28:39.539Z,3.42
2018-07-27T13:31:10.980Z,3.40
2018-07-27T13:33:50.447Z,3.37
2018-07-27T13:36:21.095Z,3.37
2018-07-27T13:38:51.988Z,3.80
2018-07-27T13:41:22.507Z,3.50
2018-07-27T13:43:53.213Z,3.50
2018-07-27T13:46:23.925Z,3.30
2018-07-27T13:48:54.602Z,3.45
2018-07-27T13:51:25.614Z,3.33
2018-07-27T13:53:56.177Z,3.37
2018-07-27T13:56:26.752Z,3.72
2018-07-27T13:58:57.794Z,3.65
2018-07-27T14:01:28.346Z,3.60
2018-07-27T14:03:58.945Z,3.65
2018-07-27T14:06:29.473Z,4.00
2018-07-27T14:09:00.661Z,4.30
2018-07-27T14:11:31.265Z,4.23
2018-07-27T14:14:04.588Z,4.37
2018-07-27T14:16:35.266Z,4.00
2018-07-27T14:19:07.392Z,3.87
2018-07-27T14:21:37.963Z,4.03
2018-07-27T14:24:09.478Z,4.00
2018-07-27T14:26:40.549Z,3.63
2018-07-27T14:29:11.530Z,4.00
2018-07-27T14:31:42.477Z,3.75
2018-07-27T14:34:16.901Z,3.92
2018-07-27T14:36:49.861Z,3.98
2018-07-27T14:39:22.038Z,4.10
2018-07-27T14:41:53.085Z,4.10
2018-07-27T14:44:23.796Z,4.00
2018-07-27T14:46:54.091Z,4.10
2018-07-27T14:49:24.765Z,4.20
2018-07-27T14:51:54.833Z,3.90
2018-07-27T14:54:25.965Z,4.10
2018-07-27T14:56:56.884Z,3.50
2018-07-27T14:59:27.627Z,3.90
2018-07-27T15:01:58.191Z,3.60
2018-07-27T15:04:28.949Z,3.60
2018-07-27T15:06:59.574Z,3.50
2018-07-27T15:09:30.618Z,3.60
2018-07-27T15:12:01.201Z,3.43
2018-07-27T15:14:31.385Z,3.30
2018-07-27T15:17:01.792Z,3.40
2018-07-27T15:19:32.934Z,3.50
2018-07-27T15:22:03.469Z,3.50
2018-07-27T15:24:34.149Z,3.47
2018-07-27T15:27:04.689Z,3.90
2018-07-27T15:29:35.755Z,3.40
2018-07-27T15:32:06.517Z,3.37
2018-07-27T15:34:37.361Z,3.60
2018-07-27T15:37:07.919Z,3.17
2018-07-27T15:39:38.853Z,3.43
2018-07-27T15:42:09.430Z,3.10
2018-07-27T15:44:40.158Z,3.53
2018-07-27T15:47:11.087Z,3.50
2018-07-27T15:49:41.975Z,3.63
2018-07-27T15:52:12.558Z,3.57
2018-07-27T15:54:43.742Z,3.60
2018-07-27T15:57:14.337Z,3.70
2018-07-27T15:59:45.125Z,3.40
2018-07-27T16:02:15.933Z,3.97
2018-07-27T16:04:46.610Z,3.70
2018-07-27T16:07:17.200Z,3.67
2018-07-27T16:09:48.377Z,3.60
2018-07-27T16:12:18.912Z,3.30
2018-07-27T16:14:49.572Z,3.50
2018-07-27T16:17:20.754Z,3.30
2018-07-27T16:19:51.617Z,3.70
2018-07-27T16:22:22.217Z,3.63
2018-07-27T16:24:53.147Z,3.57
2018-07-27T16:27:23.714Z,3.37
2018-07-27T16:29:54.953Z,8.43
2018-07-27T16:32:29.191Z,3.73
2018-07-27T16:35:05.918Z,3.60
2018-07-27T16:37:36.273Z,3.73
2018-07-27T16:40:07.814Z,3.30
2018-07-27T16:42:38.393Z,3.70
2018-07-27T16:45:09.473Z,3.50
2018-07-27T16:47:41.157Z,3.50
2018-07-27T16:50:15.441Z,3.33
2018-07-27T16:52:45.993Z,3.70
2018-07-27T16:55:16.977Z,3.33
2018-07-27T16:57:47.682Z,3.47
2018-07-27T17:00:18.365Z,3.60
2018-07-27T17:02:49.353Z,3.10
2018-07-27T17:05:20.301Z,3.70
2018-07-27T17:07:51.049Z,3.73
2018-07-27T17:10:23.471Z,3.70
2018-07-27T17:12:54.662Z,3.70
2018-07-27T17:15:25.394Z,4.00
2018-07-27T17:17:57.273Z,3.60
2018-07-27T17:20:28.370Z,3.80
2018-07-27T17:22:58.963Z,3.80
2018-07-27T17:25:29.834Z,3.90
2018-07-27T17:28:00.881Z,4.03
2018-07-27T17:30:31.523Z,4.03
2018-07-27T17:33:02.175Z,3.70
2018-07-27T17:35:33.052Z,3.97
2018-07-27T17:38:03.665Z,4.70
2018-07-27T17:40:34.382Z,4.00
2018-07-27T17:43:05.896Z,4.23
2018-07-27T17:45:37.073Z,4.40
2018-07-27T17:48:08.072Z,4.30
2018-07-27T17:50:38.665Z,3.97
2018-07-27T17:53:09.681Z,4.10
2018-07-27T17:55:40.213Z,4.20
2018-07-27T17:58:11.450Z,4.30
2018-07-27T18:00:42.194Z,4.20
2018-07-27T18:03:13.145Z,4.27
2018-07-27T18:05:44.121Z,4.23
2018-07-27T18:08:14.777Z,4.07
2018-07-27T18:10:45.473Z,4.20
2018-07-27T18:13:16.584Z,4.63
2018-07-27T18:15:47.518Z,4.20
2018-07-27T18:18:18.128Z,4.53
2018-07-27T18:20:48.648Z,4.17
2018-07-27T18:23:19.199Z,4.60
2018-07-27T18:25:50.229Z,4.40
2018-07-27T18:28:20.795Z,4.50
2018-07-27T18:30:51.399Z,4.57
2018-07-27T18:33:22.294Z,4.67
2018-07-27T18:35:53.280Z,5.60
2018-07-27T18:38:24.225Z,5.30
2018-07-27T18:40:55.366Z,4.60
2018-07-27T18:43:25.997Z,5.80
2018-07-27T18:45:56.847Z,5.30
2018-07-27T18:48:27.762Z,4.70
2018-07-27T18:50:58.691Z,4.53
2018-07-27T18:53:28.920Z,4.87
2018-07-27T18:55:59.681Z,5.13
2018-07-27T18:58:30.714Z,5.10
2018-07-27T19:01:01.443Z,4.57
2018-07-27T19:03:31.978Z,6.30
2018-07-27T19:06:03.002Z,5.60
2018-07-27T19:08:33.539Z,5.53
2018-07-27T19:11:04.788Z,5.67
2018-07-27T19:13:35.337Z,4.60
2018-07-27T19:16:06.344Z,5.20
2018-07-27T19:18:37.604Z,5.40
2018-07-27T19:21:08.542Z,5.30
2018-07-27T19:23:39.222Z,5.03
2018-07-27T19:26:10.098Z,5.70
2018-07-27T19:28:40.739Z,5.37
2018-07-27T19:31:11.481Z,5.63
2018-07-27T19:33:42.157Z,5.17
2018-07-27T19:36:12.749Z,5.47
2018-07-27T19:38:43.589Z,5.80
2018-07-27T19:41:14.149Z,5.20
2018-07-27T19:43:44.673Z,5.57
2018-07-27T19:46:16.005Z,5.60
2018-07-27T19:48:46.960Z,5.67
2018-07-27T19:51:17.818Z,6.40
2018-07-27T19:53:48.403Z,5.70
2018-07-27T19:56:18.949Z,5.90
2018-07-27T19:58:49.793Z,5.90
2018-07-27T20:01:20.485Z,5.80
2018-07-27T20:03:51.042Z,6.50
2018-07-27T20:06:21.917Z,5.83
2018-07-27T20:08:52.473Z,5.90
2018-07-27T20:11:23.398Z,5.73
2018-07-27T20:13:54.230Z,5.20
2018-07-27T20:16:24.758Z,4.90
2018-07-27T20:18:55.289Z,5.20
2018-07-27T20:21:25.987Z,5.10
2018-07-27T20:23:56.593Z,5.20
2018-07-27T20:26:27.314Z,5.70
2018-07-27T20:28:58.348Z,5.40
2018-07-27T20:31:28.901Z,5.30
2018-07-27T20:33:59.453Z,5.17
2018-07-27T20:36:30.042Z,6.20
2018-07-27T20:39:00.893Z,5.27
2018-07-27T20:41:31.806Z,4.80
2018-07-27T20:44:02.436Z,5.03
2018-07-27T20:46:33.005Z,5.00
2018-07-27T20:49:03.835Z,5.10
2018-07-27T20:51:34.625Z,5.00
2018-07-27T20:54:05.369Z,4.70
2018-07-27T20:56:36.249Z,5.17
2018-07-27T20:59:07.235Z,5.63
2018-07-27T21:01:37.959Z,5.10
2018-07-27T21:04:08.993Z,5.03
2018-07-27T21:06:39.713Z,5.20
2018-07-27T21:09:11.410Z,5.57
2018-07-27T21:11:43.180Z,5.50
2018-07-27T21:14:13.961Z,5.50
2018-07-27T21:16:44.545Z,5.63
2018-07-27T21:19:15.370Z,5.47
2018-07-27T21:21:46.009Z,5.30
2018-07-27T21:24:16.558Z,5.40
2018-07-27T21:26:47.450Z,5.30
2018-07-27T21:29:18.022Z,5.33
2018-07-27T21:31:48.921Z,5.40
2018-07-27T21:34:20.073Z,5.43
2018-07-27T21:36:50.726Z,5.47
2018-07-27T21:39:21.290Z,5.57
2018-07-27T21:41:52.183Z,5.87
2018-07-27T21:44:22.701Z,5.30
2018-07-27T21:46:53.417Z,5.37
2018-07-27T21:49:24.309Z,5.00
2018-07-27T21:51:55.173Z,5.40
2018-07-27T21:54:25.698Z,5.47
2018-07-27T21:56:56.542Z,5.03
2018-07-27T21:59:27.089Z,5.37
2018-07-27T22:01:58.584Z,5.20
2018-07-27T22:04:29.438Z,5.43
2018-07-27T22:07:00.366Z,5.35
2018-07-27T22:09:31.331Z,5.20
2018-07-27T22:12:02.817Z,5.83
2018-07-27T22:14:33.654Z,4.93
2018-07-27T22:17:04.539Z,5.20
2018-07-27T22:19:38.272Z,5.50
2018-07-27T22:22:10.194Z,5.60
2018-07-27T22:24:40.871Z,5.70
2018-07-27T22:27:11.860Z,5.27
2018-07-27T22:29:43.034Z,5.17
2018-07-27T22:32:13.809Z,5.47
2018-07-27T22:34:45.161Z,4.90
2018-07-27T22:37:16.233Z,5.10
2018-07-27T22:39:46.809Z,5.70
2018-07-27T22:42:18.076Z,5.27
2018-07-27T22:44:48.725Z,5.20
2018-07-27T22:47:20.620Z,5.60
2018-07-27T22:49:52.223Z,5.53
2018-07-27T22:52:23.290Z,5.53
2018-07-27T22:54:54.330Z,5.63
2018-07-27T22:57:25.181Z,5.90
2018-07-27T22:59:56.612Z,5.60
2018-07-27T23:02:27.602Z,5.67
2018-07-27T23:04:58.607Z,5.40
2018-07-27T23:07:29.813Z,5.53
2018-07-27T23:10:00.397Z,5.17
2018-07-27T23:12:31.770Z,5.53
2018-07-27T23:15:02.437Z,5.40
2018-07-27T23:17:33.277Z,7.40
2018-07-27T23:20:06.060Z,10.83
2018-07-27T23:22:37.210Z,5.33
2018-07-27T23:25:08.419Z,5.80
2018-07-27T23:27:38.604Z,6.13
2018-07-27T23:30:12.477Z,5.70
2018-07-27T23:32:43.727Z,5.63
2018-07-27T23:35:14.554Z,6.13
2018-07-27T23:37:44.633Z,5.83
2018-07-27T23:40:15.237Z,5.70
2018-07-27T23:42:46.423Z,5.43
2018-07-27T23:45:18.727Z,5.83
2018-07-27T23:47:50.122Z,5.50
2018-07-27T23:50:20.816Z,5.80
2018-07-27T23:52:54.765Z,5.70
2018-07-27T23:55:26.665Z,5.40
2018-07-27T23:57:57.802Z,5.57
